Home   Weather   USA   Cupertino   Past weeks
Flag for USA

Past Weather in Cupertino, California, USA — Yesterday and Last 2 Weeks

Currently: 57 °F. Clear. (Weather station: Moffett Field, USA). See more current weather

Past Weather in Cupertino — Graph

°F

Cupertino Temperature Yesterday

Maximum temperature yesterday: 64 °F (at 1:35 pm)
Minimum temperature yesterday: 54 °F (at 11:35 pm)
Average temperature yesterday: 59 °F

High & Low Weather Summary for the Past Weeks

  Temperature Humidity Pressure
High 70 °F (Apr 29, 12:55 pm) 94% (Apr 26, 3:55 am) 30.15 "Hg (Apr 26, 3:55 am)
Low 48 °F (Apr 28, 4:35 am) 37% (Apr 26, 3:35 pm) 29.84 "Hg (Apr 25, 4:35 pm)
Average 58 °F 72% 29.99 "Hg
* Reported Apr 23 8:15 pm — May 8 8:55 pm, Cupertino. Weather by CustomWeather, © 2026

Note: Actual official high and low records may vary slightly from our data, if they occured in-between our weather recording intervals... More about our weather records

Cupertino Weather History for the Previous 24 Hours

Scroll right to see more
  Conditions Comfort    
Time   Temp Weather Wind   Humidity Barometer Visibility
8:55 pm
Fri, May 8
57 °F Clear. 7 mph 82% 30.03 "Hg 8 mi
8:35 pm 57 °F Clear. 9 mph 82% 30.03 "Hg 8 mi
8:15 pm 59 °F Clear. 10 mph 77% 30.02 "Hg 7 mi
7:55 pm 59 °F Sunny. 12 mph 77% 30.02 "Hg 6 mi
7:35 pm 59 °F Sunny. 10 mph 77% 30.02 "Hg 7 mi
6:55 pm 61 °F Sunny. 13 mph 77% 30.01 "Hg 7 mi
6:35 pm 61 °F Sunny. 15 mph 77% 30.01 "Hg 7 mi
5:55 pm 63 °F Sunny. 16 mph 73% 30.01 "Hg 7 mi
5:35 pm 63 °F Sunny. 17 mph 73% 30.02 "Hg 8 mi
5:15 pm 63 °F Sunny. 15 mph 73% 30.02 "Hg 7 mi
4:55 pm 63 °F Sunny. 15 mph 73% 30.02 "Hg 7 mi
4:35 pm 63 °F Sunny. 18 mph 73% 30.03 "Hg 8 mi
3:55 pm 64 °F Sunny. 18 mph 68% 30.04 "Hg 8 mi
3:35 pm 64 °F Sunny. 15 mph 68% 30.05 "Hg 8 mi
3:15 pm 63 °F Sunny. 16 mph 73% 30.06 "Hg 8 mi
2:55 pm 63 °F Sunny. 16 mph 73% 30.06 "Hg 8 mi
2:35 pm 64 °F Sunny. 16 mph 68% 30.07 "Hg 7 mi
1:55 pm 63 °F Sunny. 13 mph 73% 30.08 "Hg 8 mi
1:35 pm 63 °F Sunny. 14 mph 73% 30.09 "Hg 7 mi
12:55 pm 64 °F Passing clouds. 10 mph 68% 30.09 "Hg 8 mi
12:35 pm 63 °F Passing clouds. 12 mph 73% 30.10 "Hg 8 mi
12:15 pm 63 °F Passing clouds. 10 mph 73% 30.10 "Hg 8 mi
11:55 am 63 °F Sunny. 13 mph 68% 30.10 "Hg 8 mi
11:35 am 61 °F Sunny. 10 mph 72% 30.11 "Hg 9 mi
10:55 am 59 °F Sunny. 10 mph 72% 30.11 "Hg 8 mi
10:35 am 59 °F Sunny. 9 mph 72% 30.11 "Hg 9 mi
9:55 am 59 °F Sunny. 8 mph 68% 30.11 "Hg 9 mi
9:35 am 57 °F Scattered clouds. 5 mph 72% 30.11 "Hg 9 mi
9:15 am 57 °F Partly sunny. No wind 72% 30.11 "Hg 9 mi
8:55 am 55 °F Partly sunny. 3 mph 77% 30.11 "Hg 9 mi
8:35 am 55 °F Overcast. 3 mph 72% 30.11 "Hg 9 mi
7:55 am 54 °F Overcast. 5 mph 82% 30.11 "Hg 9 mi
7:35 am 54 °F Overcast. No wind 82% 30.11 "Hg 9 mi
6:55 am 54 °F Overcast. No wind 82% 30.10 "Hg 9 mi
6:35 am 54 °F Overcast. No wind 82% 30.10 "Hg 9 mi
6:15 am 54 °F Overcast. 3 mph 82% 30.09 "Hg 9 mi
5:55 am 54 °F Overcast. No wind 82% 30.09 "Hg 10 mi
5:15 am 54 °F Overcast. 6 mph 82% 30.09 "Hg 9 mi
4:55 am 54 °F Overcast. 6 mph 82% 30.09 "Hg 9 mi
4:35 am 54 °F Overcast. 7 mph 82% 30.09 "Hg 9 mi
4:15 am 55 °F Overcast. 6 mph 82% 30.09 "Hg 10 mi
3:55 am 55 °F Overcast. 6 mph 82% 30.09 "Hg 9 mi
3:35 am 55 °F Overcast. No wind 82% 30.09 "Hg 9 mi
3:15 am 55 °F Overcast. No wind 82% 30.08 "Hg 9 mi
2:55 am 55 °F Overcast. No wind 82% 30.08 "Hg 9 mi
2:35 am 55 °F Overcast. 5 mph 82% 30.08 "Hg 9 mi
2:15 am 55 °F Overcast. 5 mph 82% 30.08 "Hg 9 mi
1:55 am 55 °F Overcast. No wind 82% 30.08 "Hg 9 mi
1:35 am 55 °F Overcast. 7 mph 82% 30.09 "Hg 9 mi
1:15 am 55 °F Overcast. 6 mph 82% 30.09 "Hg 9 mi
12:55 am 55 °F Overcast. 8 mph 82% 30.09 "Hg 9 mi
12:35 am 55 °F Overcast. 6 mph 82% 30.08 "Hg 10 mi
12:15 am 55 °F Overcast. No wind 82% 30.08 "Hg 10 mi
11:55 pm
Thu, May 7
54 °F Overcast. No wind 88% 30.08 "Hg 10 mi
11:35 pm 54 °F Overcast. 7 mph 88% 30.08 "Hg 9 mi
11:15 pm 55 °F Overcast. 8 mph 88% 30.08 "Hg 10 mi
10:55 pm 55 °F Overcast. 12 mph 88% 30.08 "Hg 9 mi
10:35 pm 55 °F Overcast. 8 mph 88% 30.08 "Hg 10 mi
10:15 pm 55 °F Overcast. 7 mph 88% 30.07 "Hg 9 mi
Weather by CustomWeather, © 2026

See weather overview